sensor_id;sensor_type;location;lat;lon;timestamp;temperature;humidity
20574;DHT22;10445;50.216;7.912;2022-09-09T00:48:30;14.40;99.90
20574;DHT22;10445;50.216;7.912;2022-09-09T00:51:55;14.40;99.90
20574;DHT22;10445;50.216;7.912;2022-09-09T00:57:52;14.50;99.90
20574;DHT22;10445;50.216;7.912;2022-09-09T01:01:48;14.40;99.90
20574;DHT22;10445;50.216;7.912;2022-09-09T01:24:34;14.40;99.90
20574;DHT22;10445;50.216;7.912;2022-09-09T01:28:31;14.40;99.90
20574;DHT22;10445;50.216;7.912;2022-09-09T01:49:56;14.20;99.90
20574;DHT22;10445;50.216;7.912;2022-09-09T01:57:15;14.20;99.90
20574;DHT22;10445;50.216;7.912;2022-09-09T02:00:32;14.20;99.90
20574;DHT22;10445;50.216;7.912;2022-09-09T02:27:14;14.30;99.90
20574;DHT22;10445;50.216;7.912;2022-09-09T02:37:23;14.20;99.90
20574;DHT22;10445;50.216;7.912;2022-09-09T02:41:19;14.10;99.90
20574;DHT22;10445;50.216;7.912;2022-09-09T03:06:36;14.10;99.90
20574;DHT22;10445;50.216;7.912;2022-09-09T03:09:56;14.10;99.90
20574;DHT22;10445;50.216;7.912;2022-09-09T03:15:41;14.00;99.90
20574;DHT22;10445;50.216;7.912;2022-09-09T03:19:54;14.00;99.90
20574;DHT22;10445;50.216;7.912;2022-09-09T03:23:17;14.10;99.90
20574;DHT22;10445;50.216;7.912;2022-09-09T03:29:24;14.00;99.90
20574;DHT22;10445;50.216;7.912;2022-09-09T03:45:20;14.00;99.90
20574;DHT22;10445;50.216;7.912;2022-09-09T03:48:37;13.90;99.90
20574;DHT22;10445;50.216;7.912;2022-09-09T03:51:31;13.90;99.90
20574;DHT22;10445;50.216;7.912;2022-09-09T04:04:05;13.90;99.90
20574;DHT22;10445;50.216;7.912;2022-09-09T04:08:01;13.90;99.90
20574;DHT22;10445;50.216;7.912;2022-09-09T04:15:17;13.80;99.90
20574;DHT22;10445;50.216;7.912;2022-09-09T04:18:07;13.80;99.90
20574;DHT22;10445;50.216;7.912;2022-09-09T04:22:01;13.80;99.90
20574;DHT22;10445;50.216;7.912;2022-09-09T04:25:19;13.70;99.90
20574;DHT22;10445;50.216;7.912;2022-09-09T04:28:40;13.70;99.90
20574;DHT22;10445;50.216;7.912;2022-09-09T04:36:13;13.70;99.90
20574;DHT22;10445;50.216;7.912;2022-09-09T04:48:03;13.70;99.90
20574;DHT22;10445;50.216;7.912;2022-09-09T04:56:05;13.70;99.90
20574;DHT22;10445;50.216;7.912;2022-09-09T04:59:21;13.70;99.90
20574;DHT22;10445;50.216;7.912;2022-09-09T05:02:14;13.70;99.90
20574;DHT22;10445;50.216;7.912;2022-09-09T05:08:43;13.70;99.90
20574;DHT22;10445;50.216;7.912;2022-09-09T05:59:15;14.10;99.90
20574;DHT22;10445;50.216;7.912;2022-09-09T06:02:08;14.30;99.90
20574;DHT22;10445;50.216;7.912;2022-09-09T06:05:14;14.50;99.90
20574;DHT22;10445;50.216;7.912;2022-09-09T06:08:03;14.90;99.90
20574;DHT22;10445;50.216;7.912;2022-09-09T06:10:52;15.30;99.90
20574;DHT22;10445;50.216;7.912;2022-09-09T06:16:37;15.30;95.30
20574;DHT22;10445;50.216;7.912;2022-09-09T06:19:58;15.30;97.40
20574;DHT22;10445;50.216;7.912;2022-09-09T06:38:07;15.20;97.50
20574;DHT22;10445;50.216;7.912;2022-09-09T06:41:24;15.50;96.20
20574;DHT22;10445;50.216;7.912;2022-09-09T06:44:13;15.80;94.40
20574;DHT22;10445;50.216;7.912;2022-09-09T06:47:17;15.90;89.60
20574;DHT22;10445;50.216;7.912;2022-09-09T06:50:07;16.00;89.40
20574;DHT22;10445;50.216;7.912;2022-09-09T06:53:02;16.20;91.00
20574;DHT22;10445;50.216;7.912;2022-09-09T06:56:19;16.40;88.80
20574;DHT22;10445;50.216;7.912;2022-09-09T06:59:35;16.30;86.80
20574;DHT22;10445;50.216;7.912;2022-09-09T07:02:42;16.20;86.00
20574;DHT22;10445;50.216;7.912;2022-09-09T07:05:32;16.00;86.50
20574;DHT22;10445;50.216;7.912;2022-09-09T07:08:37;16.00;90.10
20574;DHT22;10445;50.216;7.912;2022-09-09T07:11:29;16.00;88.40
20574;DHT22;10445;50.216;7.912;2022-09-09T07:17:05;16.30;90.60
20574;DHT22;10445;50.216;7.912;2022-09-09T07:20:13;16.40;87.90
20574;DHT22;10445;50.216;7.912;2022-09-09T07:26:12;16.60;84.00
20574;DHT22;10445;50.216;7.912;2022-09-09T07:29:19;16.60;84.50
20574;DHT22;10445;50.216;7.912;2022-09-09T07:32:08;16.50;86.50
20574;DHT22;10445;50.216;7.912;2022-09-09T07:34:57;16.60;87.60
20574;DHT22;10445;50.216;7.912;2022-09-09T07:38:06;16.70;87.70
20574;DHT22;10445;50.216;7.912;2022-09-09T07:41:03;16.80;87.20
20574;DHT22;10445;50.216;7.912;2022-09-09T07:44:09;16.80;83.30
20574;DHT22;10445;50.216;7.912;2022-09-09T07:47:02;17.00;86.60
20574;DHT22;10445;50.216;7.912;2022-09-09T07:50:12;17.00;83.40
20574;DHT22;10445;50.216;7.912;2022-09-09T07:53:01;17.00;82.20
20574;DHT22;10445;50.216;7.912;2022-09-09T07:56:06;17.20;81.80
20574;DHT22;10445;50.216;7.912;2022-09-09T07:58:57;17.40;82.90
20574;DHT22;10445;50.216;7.912;2022-09-09T08:01:48;17.70;78.80
20574;DHT22;10445;50.216;7.912;2022-09-09T08:04:52;17.70;71.30
20574;DHT22;10445;50.216;7.912;2022-09-09T08:07:41;17.60;74.50
20574;DHT22;10445;50.216;7.912;2022-09-09T08:10:48;17.40;66.80
20574;DHT22;10445;50.216;7.912;2022-09-09T08:13:38;17.30;70.20
20574;DHT22;10445;50.216;7.912;2022-09-09T08:16:31;17.30;70.00
20574;DHT22;10445;50.216;7.912;2022-09-09T08:19:33;17.20;68.30
20574;DHT22;10445;50.216;7.912;2022-09-09T08:22:26;17.20;72.80
20574;DHT22;10445;50.216;7.912;2022-09-09T08:25:42;17.40;75.30
20574;DHT22;10445;50.216;7.912;2022-09-09T08:28:38;17.70;78.80
20574;DHT22;10445;50.216;7.912;2022-09-09T09:21:42;17.80;48.50
20574;DHT22;10445;50.216;7.912;2022-09-09T09:25:26;18.00;49.50
20574;DHT22;10445;50.216;7.912;2022-09-09T09:31:35;18.10;34.80
20574;DHT22;10445;50.216;7.912;2022-09-09T09:34:48;17.80;35.60
20574;DHT22;10445;50.216;7.912;2022-09-09T09:37:40;17.50;40.10
20574;DHT22;10445;50.216;7.912;2022-09-09T09:50:19;18.00;37.70
20574;DHT22;10445;50.216;7.912;2022-09-09T10:34:28;18.50;27.00
20574;DHT22;10445;50.216;7.912;2022-09-09T12:01:35;19.20;8.40
20574;DHT22;10445;50.216;7.912;2022-09-09T12:10:55;18.80;5.70
20574;DHT22;10445;50.216;7.912;2022-09-09T12:17:42;18.40;7.90
20574;DHT22;10445;50.216;7.912;2022-09-09T12:33:10;16.70;90.20
20574;DHT22;10445;50.216;7.912;2022-09-09T12:42:49;17.10;90.90
20574;DHT22;10445;50.216;7.912;2022-09-09T12:45:42;17.30;73.30
20574;DHT22;10445;50.216;7.912;2022-09-09T12:48:37;17.60;74.30
20574;DHT22;10445;50.216;7.912;2022-09-09T12:51:36;17.90;55.30
20574;DHT22;10445;50.216;7.912;2022-09-09T12:54:25;18.00;57.00
20574;DHT22;10445;50.216;7.912;2022-09-09T12:57:15;18.10;49.00
20574;DHT22;10445;50.216;7.912;2022-09-09T13:00:15;18.20;43.20
20574;DHT22;10445;50.216;7.912;2022-09-09T13:03:16;18.40;37.40
20574;DHT22;10445;50.216;7.912;2022-09-09T13:06:21;18.50;32.80
20574;DHT22;10445;50.216;7.912;2022-09-09T13:09:15;18.60;29.90
20574;DHT22;10445;50.216;7.912;2022-09-09T13:12:04;18.70;32.50
20574;DHT22;10445;50.216;7.912;2022-09-09T13:14:55;18.80;32.70
20574;DHT22;10445;50.216;7.912;2022-09-09T13:17:50;18.90;31.80
20574;DHT22;10445;50.216;7.912;2022-09-09T13:20:46;18.90;23.60
20574;DHT22;10445;50.216;7.912;2022-09-09T13:23:37;18.80;22.50
20574;DHT22;10445;50.216;7.912;2022-09-09T13:26:27;18.80;25.50
20574;DHT22;10445;50.216;7.912;2022-09-09T13:29:17;19.00;21.70
20574;DHT22;10445;50.216;7.912;2022-09-09T13:32:15;18.90;22.10
20574;DHT22;10445;50.216;7.912;2022-09-09T13:38:08;18.20;25.30
20574;DHT22;10445;50.216;7.912;2022-09-09T13:41:00;17.90;28.70
20574;DHT22;10445;50.216;7.912;2022-09-09T13:43:51;17.70;34.30
20574;DHT22;10445;50.216;7.912;2022-09-09T13:47:00;17.60;38.40
20574;DHT22;10445;50.216;7.912;2022-09-09T13:49:57;17.50;35.80
20574;DHT22;10445;50.216;7.912;2022-09-09T13:53:04;17.30;27.10
20574;DHT22;10445;50.216;7.912;2022-09-09T13:55:53;16.90;34.60
20574;DHT22;10445;50.216;7.912;2022-09-09T13:58:44;16.60;45.90
20574;DHT22;10445;50.216;7.912;2022-09-09T14:01:33;16.30;57.50
20574;DHT22;10445;50.216;7.912;2022-09-09T14:04:22;16.30;70.20
20574;DHT22;10445;50.216;7.912;2022-09-09T14:07:12;16.20;80.80
20574;DHT22;10445;50.216;7.912;2022-09-09T14:10:02;16.30;92.00
20574;DHT22;10445;50.216;7.912;2022-09-09T14:12:51;16.70;95.40
20574;DHT22;10445;50.216;7.912;2022-09-09T14:15:42;17.40;86.90
20574;DHT22;10445;50.216;7.912;2022-09-09T14:18:36;17.40;87.30
20574;DHT22;10445;50.216;7.912;2022-09-09T14:21:27;17.50;94.30
20574;DHT22;10445;50.216;7.912;2022-09-09T14:24:31;17.40;84.30
20574;DHT22;10445;50.216;7.912;2022-09-09T14:27:21;17.50;85.30
20574;DHT22;10445;50.216;7.912;2022-09-09T14:30:10;18.30;75.70
20574;DHT22;10445;50.216;7.912;2022-09-09T14:33:01;19.00;72.20
20574;DHT22;10445;50.216;7.912;2022-09-09T14:35:55;19.30;62.80
20574;DHT22;10445;50.216;7.912;2022-09-09T14:38:44;18.70;71.70
20574;DHT22;10445;50.216;7.912;2022-09-09T14:41:33;18.30;73.60
20574;DHT22;10445;50.216;7.912;2022-09-09T14:44:22;17.80;74.90
20574;DHT22;10445;50.216;7.912;2022-09-09T14:47:10;17.60;72.40
20574;DHT22;10445;50.216;7.912;2022-09-09T14:50:00;17.20;73.40
20574;DHT22;10445;50.216;7.912;2022-09-09T14:52:51;16.90;78.20
20574;DHT22;10445;50.216;7.912;2022-09-09T14:55:39;16.70;77.70
20574;DHT22;10445;50.216;7.912;2022-09-09T14:58:30;16.60;80.80
20574;DHT22;10445;50.216;7.912;2022-09-09T15:01:19;16.50;82.70
20574;DHT22;10445;50.216;7.912;2022-09-09T15:04:12;16.40;82.70
20574;DHT22;10445;50.216;7.912;2022-09-09T15:07:03;16.30;84.40
20574;DHT22;10445;50.216;7.912;2022-09-09T15:09:52;16.30;84.40
20574;DHT22;10445;50.216;7.912;2022-09-09T15:12:41;16.40;84.20
20574;DHT22;10445;50.216;7.912;2022-09-09T15:15:30;16.30;84.40
20574;DHT22;10445;50.216;7.912;2022-09-09T15:18:18;16.30;84.40
20574;DHT22;10445;50.216;7.912;2022-09-09T15:21:07;16.30;84.20
20574;DHT22;10445;50.216;7.912;2022-09-09T15:23:58;16.30;85.20
20574;DHT22;10445;50.216;7.912;2022-09-09T15:26:47;16.30;84.80
20574;DHT22;10445;50.216;7.912;2022-09-09T15:29:36;16.30;86.20
20574;DHT22;10445;50.216;7.912;2022-09-09T15:32:25;16.30;85.30
20574;DHT22;10445;50.216;7.912;2022-09-09T15:35:14;16.20;85.40
20574;DHT22;10445;50.216;7.912;2022-09-09T15:38:03;16.20;85.00
20574;DHT22;10445;50.216;7.912;2022-09-09T15:40:54;16.00;86.50
20574;DHT22;10445;50.216;7.912;2022-09-09T15:43:45;15.70;91.20
20574;DHT22;10445;50.216;7.912;2022-09-09T15:46:35;15.60;96.20
20574;DHT22;10445;50.216;7.912;2022-09-09T15:49:25;15.40;98.80
20574;DHT22;10445;50.216;7.912;2022-09-09T15:52:14;15.30;99.90
20574;DHT22;10445;50.216;7.912;2022-09-09T15:55:03;15.30;99.90
20574;DHT22;10445;50.216;7.912;2022-09-09T15:57:54;15.20;99.90
20574;DHT22;10445;50.216;7.912;2022-09-09T16:00:44;15.10;99.90
20574;DHT22;10445;50.216;7.912;2022-09-09T16:03:34;15.10;99.90
20574;DHT22;10445;50.216;7.912;2022-09-09T16:06:29;15.00;99.90
20574;DHT22;10445;50.216;7.912;2022-09-09T16:09:18;15.00;99.90
20574;DHT22;10445;50.216;7.912;2022-09-09T16:12:07;14.90;99.90
20574;DHT22;10445;50.216;7.912;2022-09-09T16:14:58;14.80;99.90
20574;DHT22;10445;50.216;7.912;2022-09-09T16:17:47;14.80;99.90
20574;DHT22;10445;50.216;7.912;2022-09-09T16:20:36;14.70;99.90
20574;DHT22;10445;50.216;7.912;2022-09-09T16:23:24;14.60;99.90
20574;DHT22;10445;50.216;7.912;2022-09-09T16:26:14;14.50;99.90
20574;DHT22;10445;50.216;7.912;2022-09-09T16:29:04;14.40;99.90
20574;DHT22;10445;50.216;7.912;2022-09-09T16:31:54;14.30;99.90
20574;DHT22;10445;50.216;7.912;2022-09-09T16:34:49;14.30;99.90
20574;DHT22;10445;50.216;7.912;2022-09-09T16:42:20;14.10;99.90
20574;DHT22;10445;50.216;7.912;2022-09-09T16:57:21;14.10;99.90
20574;DHT22;10445;50.216;7.912;2022-09-09T17:00:34;14.10;99.90
20574;DHT22;10445;50.216;7.912;2022-09-09T17:06:40;14.10;99.90
20574;DHT22;10445;50.216;7.912;2022-09-09T17:10:01;14.00;99.90
20574;DHT22;10445;50.216;7.912;2022-09-09T17:13:06;13.90;99.90
20574;DHT22;10445;50.216;7.912;2022-09-09T17:15:55;13.90;99.90
20574;DHT22;10445;50.216;7.912;2022-09-09T17:19:09;13.90;99.90
20574;DHT22;10445;50.216;7.912;2022-09-09T17:22:07;13.80;99.90
20574;DHT22;10445;50.216;7.912;2022-09-09T17:25:07;13.80;99.90
20574;DHT22;10445;50.216;7.912;2022-09-09T17:31:16;13.80;99.90
20574;DHT22;10445;50.216;7.912;2022-09-09T17:35:08;13.80;99.90
20574;DHT22;10445;50.216;7.912;2022-09-09T17:46:06;14.00;99.90
20574;DHT22;10445;50.216;7.912;2022-09-09T17:49:13;14.00;99.90
20574;DHT22;10445;50.216;7.912;2022-09-09T17:52:02;14.00;99.90
20574;DHT22;10445;50.216;7.912;2022-09-09T17:55:08;14.00;99.90
20574;DHT22;10445;50.216;7.912;2022-09-09T17:57:58;14.00;99.90
20574;DHT22;10445;50.216;7.912;2022-09-09T18:01:02;14.00;99.90
20574;DHT22;10445;50.216;7.912;2022-09-09T18:04:08;13.90;99.90
20574;DHT22;10445;50.216;7.912;2022-09-09T18:07:15;13.90;99.90
20574;DHT22;10445;50.216;7.912;2022-09-09T18:10:05;13.90;99.90
20574;DHT22;10445;50.216;7.912;2022-09-09T18:13:02;13.90;99.90
20574;DHT22;10445;50.216;7.912;2022-09-09T18:15:56;13.90;99.90
20574;DHT22;10445;50.216;7.912;2022-09-09T18:18:48;13.90;99.90
20574;DHT22;10445;50.216;7.912;2022-09-09T18:21:52;13.90;99.90
20574;DHT22;10445;50.216;7.912;2022-09-09T18:24:49;13.90;99.90
20574;DHT22;10445;50.216;7.912;2022-09-09T18:27:54;13.80;99.90
20574;DHT22;10445;50.216;7.912;2022-09-09T18:30:45;13.80;99.90
20574;DHT22;10445;50.216;7.912;2022-09-09T18:33:46;13.70;99.90
20574;DHT22;10445;50.216;7.912;2022-09-09T18:43:56;13.70;99.90
20574;DHT22;10445;50.216;7.912;2022-09-09T19:09:03;13.70;99.90
20574;DHT22;10445;50.216;7.912;2022-09-09T19:11:52;13.60;99.90
20574;DHT22;10445;50.216;7.912;2022-09-09T19:14:42;13.60;99.90
20574;DHT22;10445;50.216;7.912;2022-09-09T19:17:31;13.60;99.90
20574;DHT22;10445;50.216;7.912;2022-09-09T19:20:21;13.60;99.90
20574;DHT22;10445;50.216;7.912;2022-09-09T19:23:12;13.60;99.90
20574;DHT22;10445;50.216;7.912;2022-09-09T19:26:02;13.60;99.90
20574;DHT22;10445;50.216;7.912;2022-09-09T19:28:52;13.60;99.90
20574;DHT22;10445;50.216;7.912;2022-09-09T19:31:47;13.60;99.90
20574;DHT22;10445;50.216;7.912;2022-09-09T19:35:06;13.50;99.90
20574;DHT22;10445;50.216;7.912;2022-09-09T19:37:56;13.50;99.90
20574;DHT22;10445;50.216;7.912;2022-09-09T19:40:45;13.40;99.90
20574;DHT22;10445;50.216;7.912;2022-09-09T19:43:45;13.40;99.90
20574;DHT22;10445;50.216;7.912;2022-09-09T19:46:36;13.40;99.90
20574;DHT22;10445;50.216;7.912;2022-09-09T19:49:25;13.30;99.90
20574;DHT22;10445;50.216;7.912;2022-09-09T19:52:15;13.30;99.90
20574;DHT22;10445;50.216;7.912;2022-09-09T19:55:17;13.20;99.90
20574;DHT22;10445;50.216;7.912;2022-09-09T19:58:06;13.20;99.90
20574;DHT22;10445;50.216;7.912;2022-09-09T20:01:08;13.20;99.90
20574;DHT22;10445;50.216;7.912;2022-09-09T20:03:59;13.10;99.90
20574;DHT22;10445;50.216;7.912;2022-09-09T20:06:48;13.10;99.90
20574;DHT22;10445;50.216;7.912;2022-09-09T20:09:49;13.10;99.90
20574;DHT22;10445;50.216;7.912;2022-09-09T20:12:44;13.10;99.90
20574;DHT22;10445;50.216;7.912;2022-09-09T20:16:00;13.10;99.90
20574;DHT22;10445;50.216;7.912;2022-09-09T20:18:54;13.10;99.90
20574;DHT22;10445;50.216;7.912;2022-09-09T20:22:00;13.10;99.90
20574;DHT22;10445;50.216;7.912;2022-09-09T20:24:51;13.10;99.90
20574;DHT22;10445;50.216;7.912;2022-09-09T20:27:48;13.10;99.90
20574;DHT22;10445;50.216;7.912;2022-09-09T20:30:37;13.10;99.90
20574;DHT22;10445;50.216;7.912;2022-09-09T20:33:27;13.10;99.90
20574;DHT22;10445;50.216;7.912;2022-09-09T20:36:35;13.10;99.90
20574;DHT22;10445;50.216;7.912;2022-09-09T20:39:24;13.10;99.90
20574;DHT22;10445;50.216;7.912;2022-09-09T20:42:14;13.00;99.90
20574;DHT22;10445;50.216;7.912;2022-09-09T20:45:10;13.00;99.90
20574;DHT22;10445;50.216;7.912;2022-09-09T20:48:03;13.00;99.90
20574;DHT22;10445;50.216;7.912;2022-09-09T20:50:53;13.00;99.90
20574;DHT22;10445;50.216;7.912;2022-09-09T20:53:53;13.00;99.90
20574;DHT22;10445;50.216;7.912;2022-09-09T20:56:44;13.00;99.90
20574;DHT22;10445;50.216;7.912;2022-09-09T20:59:33;13.00;99.90
20574;DHT22;10445;50.216;7.912;2022-09-09T21:02:29;13.00;99.90
20574;DHT22;10445;50.216;7.912;2022-09-09T21:05:18;13.00;99.90
20574;DHT22;10445;50.216;7.912;2022-09-09T21:08:11;13.00;99.90
20574;DHT22;10445;50.216;7.912;2022-09-09T21:11:13;13.00;99.90
20574;DHT22;10445;50.216;7.912;2022-09-09T21:14:02;13.00;99.90
20574;DHT22;10445;50.216;7.912;2022-09-09T21:16:51;13.00;99.90
20574;DHT22;10445;50.216;7.912;2022-09-09T21:19:52;13.00;99.90
20574;DHT22;10445;50.216;7.912;2022-09-09T21:22:43;13.00;99.90
20574;DHT22;10445;50.216;7.912;2022-09-09T21:25:34;13.00;99.90
20574;DHT22;10445;50.216;7.912;2022-09-09T21:28:32;13.00;99.90
20574;DHT22;10445;50.216;7.912;2022-09-09T21:31:21;13.00;99.90
20574;DHT22;10445;50.216;7.912;2022-09-09T21:34:14;13.10;99.90
20574;DHT22;10445;50.216;7.912;2022-09-09T21:37:13;13.10;99.90
20574;DHT22;10445;50.216;7.912;2022-09-09T21:40:03;13.10;99.90
20574;DHT22;10445;50.216;7.912;2022-09-09T21:42:53;13.10;99.90
20574;DHT22;10445;50.216;7.912;2022-09-09T21:45:54;13.10;99.90
20574;DHT22;10445;50.216;7.912;2022-09-09T21:48:43;13.10;99.90
20574;DHT22;10445;50.216;7.912;2022-09-09T21:51:32;13.10;99.90
20574;DHT22;10445;50.216;7.912;2022-09-09T21:54:21;13.10;99.90
20574;DHT22;10445;50.216;7.912;2022-09-09T21:57:23;13.10;99.90
20574;DHT22;10445;50.216;7.912;2022-09-09T22:00:14;13.20;99.90
20574;DHT22;10445;50.216;7.912;2022-09-09T22:03:14;13.20;99.90
20574;DHT22;10445;50.216;7.912;2022-09-09T22:06:05;13.20;99.90
20574;DHT22;10445;50.216;7.912;2022-09-09T22:08:54;13.20;99.90
20574;DHT22;10445;50.216;7.912;2022-09-09T22:11:54;13.20;99.90
20574;DHT22;10445;50.216;7.912;2022-09-09T22:14:43;13.20;99.90
20574;DHT22;10445;50.216;7.912;2022-09-09T22:17:34;13.20;99.90
20574;DHT22;10445;50.216;7.912;2022-09-09T22:20:22;13.20;99.90
20574;DHT22;10445;50.216;7.912;2022-09-09T22:23:14;13.20;99.90
20574;DHT22;10445;50.216;7.912;2022-09-09T22:26:03;13.20;99.90
20574;DHT22;10445;50.216;7.912;2022-09-09T22:28:52;13.20;99.90
20574;DHT22;10445;50.216;7.912;2022-09-09T22:31:43;13.20;99.90
20574;DHT22;10445;50.216;7.912;2022-09-09T22:34:37;13.20;99.90
20574;DHT22;10445;50.216;7.912;2022-09-09T22:37:26;13.20;99.90
20574;DHT22;10445;50.216;7.912;2022-09-09T22:40:15;13.20;99.90
20574;DHT22;10445;50.216;7.912;2022-09-09T22:43:15;13.20;99.90
20574;DHT22;10445;50.216;7.912;2022-09-09T22:46:04;13.20;99.90
20574;DHT22;10445;50.216;7.912;2022-09-09T22:48:52;13.20;99.90
20574;DHT22;10445;50.216;7.912;2022-09-09T22:51:43;13.20;99.90
20574;DHT22;10445;50.216;7.912;2022-09-09T22:54:43;13.10;99.90
20574;DHT22;10445;50.216;7.912;2022-09-09T22:57:32;13.10;99.90
20574;DHT22;10445;50.216;7.912;2022-09-09T23:00:21;13.10;99.90
20574;DHT22;10445;50.216;7.912;2022-09-09T23:03:16;13.00;99.90
20574;DHT22;10445;50.216;7.912;2022-09-09T23:06:04;13.00;99.90
20574;DHT22;10445;50.216;7.912;2022-09-09T23:08:56;13.00;99.90
20574;DHT22;10445;50.216;7.912;2022-09-09T23:11:45;13.00;99.90
20574;DHT22;10445;50.216;7.912;2022-09-09T23:14:36;13.00;99.90
20574;DHT22;10445;50.216;7.912;2022-09-09T23:17:25;13.00;99.90
20574;DHT22;10445;50.216;7.912;2022-09-09T23:20:14;13.00;99.90
20574;DHT22;10445;50.216;7.912;2022-09-09T23:23:05;13.00;99.90
20574;DHT22;10445;50.216;7.912;2022-09-09T23:26:10;13.10;99.90
20574;DHT22;10445;50.216;7.912;2022-09-09T23:29:00;13.10;99.90
20574;DHT22;10445;50.216;7.912;2022-09-09T23:31:49;13.10;99.90
20574;DHT22;10445;50.216;7.912;2022-09-09T23:34:46;13.10;99.90
20574;DHT22;10445;50.216;7.912;2022-09-09T23:37:35;13.10;99.90
20574;DHT22;10445;50.216;7.912;2022-09-09T23:40:25;13.10;99.90
20574;DHT22;10445;50.216;7.912;2022-09-09T23:43:21;13.10;99.90
20574;DHT22;10445;50.216;7.912;2022-09-09T23:46:14;13.20;99.90
20574;DHT22;10445;50.216;7.912;2022-09-09T23:49:03;13.20;99.90
20574;DHT22;10445;50.216;7.912;2022-09-09T23:52:21;13.30;99.90
20574;DHT22;10445;50.216;7.912;2022-09-09T23:55:19;13.30;99.90
20574;DHT22;10445;50.216;7.912;2022-09-09T23:58:09;13.30;99.90
